createdAt,value
2022-11-12T00:00:22.337Z,21.70
2022-11-12T00:05:25.621Z,21.60
2022-11-12T00:10:28.756Z,21.60
2022-11-12T00:15:33.082Z,21.60
2022-11-12T00:20:36.307Z,21.60
2022-11-12T00:25:39.370Z,21.60
2022-11-12T00:30:43.678Z,21.50
2022-11-12T00:35:46.642Z,21.50
2022-11-12T00:40:49.614Z,21.50
2022-11-12T00:45:53.931Z,21.40
2022-11-12T00:51:01.765Z,21.40
2022-11-12T00:56:06.489Z,21.40
2022-11-12T01:01:12.678Z,21.40
2022-11-12T01:06:18.558Z,21.30
2022-11-12T01:11:24.039Z,21.30
2022-11-12T01:16:31.303Z,21.30
2022-11-12T01:21:35.005Z,21.30
2022-11-12T01:26:39.302Z,21.20
2022-11-12T01:31:43.603Z,21.20
2022-11-12T01:36:46.554Z,21.20
2022-11-12T01:41:49.506Z,21.20
2022-11-12T01:47:07.741Z,21.20
2022-11-12T01:52:17.953Z,21.10
2022-11-12T01:57:30.628Z,21.10
2022-11-12T02:02:38.777Z,21.10
2022-11-12T02:07:45.034Z,21.10
2022-11-12T02:13:06.309Z,21.10
2022-11-12T02:18:10.743Z,21.00
2022-11-12T02:23:15.074Z,21.00
2022-11-12T02:28:18.705Z,21.00
2022-11-12T02:33:21.692Z,21.00
2022-11-12T02:38:26.570Z,20.90
2022-11-12T02:43:29.964Z,20.90
2022-11-12T02:48:32.936Z,20.90
2022-11-12T02:53:37.274Z,20.90
2022-11-12T02:58:40.221Z,20.90
2022-11-12T03:03:43.170Z,20.80
2022-11-12T03:08:47.615Z,20.80
2022-11-12T03:13:50.699Z,20.80
2022-11-12T03:18:53.645Z,20.80
2022-11-12T03:23:57.937Z,20.80
2022-11-12T03:29:00.934Z,20.70
2022-11-12T03:34:03.913Z,20.70
2022-11-12T03:39:08.432Z,20.70
2022-11-12T03:44:11.381Z,20.70
2022-11-12T03:49:14.353Z,20.70
2022-11-12T03:54:20.097Z,20.70
2022-11-12T03:59:23.058Z,20.60
2022-11-12T04:04:46.083Z,20.60
2022-11-12T04:09:50.398Z,20.60
2022-11-12T04:14:53.373Z,20.60
2022-11-12T04:20:13.774Z,20.60
2022-11-12T04:25:35.579Z,20.50
2022-11-12T04:30:38.518Z,20.50
2022-11-12T04:35:41.747Z,20.50
2022-11-12T04:41:17.770Z,20.50
2022-11-12T04:46:20.727Z,20.50
2022-11-12T04:51:40.903Z,20.50
2022-11-12T04:56:45.214Z,20.50
2022-11-12T05:01:48.181Z,20.40
2022-11-12T05:06:54.363Z,20.40
2022-11-12T05:11:59.140Z,20.40
2022-11-12T05:17:02.762Z,20.40
2022-11-12T05:22:13.899Z,20.40
2022-11-12T05:27:26.537Z,20.40
2022-11-12T05:32:29.870Z,20.40
2022-11-12T05:37:33.905Z,20.30
2022-11-12T05:42:38.260Z,20.30
2022-11-12T05:47:41.232Z,20.30
2022-11-12T05:52:44.222Z,20.30
2022-11-12T05:57:48.553Z,20.30
2022-11-12T06:02:51.578Z,20.30
2022-11-12T06:07:54.547Z,20.30
2022-11-12T06:12:58.895Z,20.30
2022-11-12T06:18:01.859Z,20.20
2022-11-12T06:23:05.479Z,20.30
2022-11-12T06:28:09.827Z,20.50
2022-11-12T06:33:13.001Z,20.60
2022-11-12T06:38:15.954Z,20.70
2022-11-12T06:43:20.290Z,20.80
2022-11-12T06:48:23.366Z,20.90
2022-11-12T06:53:26.492Z,21.00
2022-11-12T06:58:31.098Z,21.00
2022-11-12T07:03:34.114Z,21.00
2022-11-12T07:08:37.679Z,21.00
2022-11-12T07:13:42.064Z,21.10
2022-11-12T07:18:45.635Z,21.20
2022-11-12T07:23:48.858Z,21.20
2022-11-12T07:28:56.459Z,21.20
2022-11-12T07:33:59.593Z,21.20
2022-11-12T07:39:02.572Z,21.20
2022-11-12T07:44:07.189Z,21.20
2022-11-12T07:49:10.204Z,21.10
2022-11-12T07:54:13.750Z,21.10
2022-11-12T07:59:18.108Z,21.10
2022-11-12T08:04:21.270Z,21.10
2022-11-12T08:09:24.238Z,21.10
2022-11-12T08:14:28.564Z,21.20
2022-11-12T08:19:31.534Z,21.20
2022-11-12T08:24:34.485Z,21.20
2022-11-12T08:29:38.785Z,21.20
2022-11-12T08:34:43.705Z,21.20
2022-11-12T08:39:46.717Z,21.10
2022-11-12T08:44:51.164Z,21.10
2022-11-12T08:49:54.225Z,21.10
2022-11-12T08:54:57.259Z,21.00
2022-11-12T09:00:01.686Z,21.10
2022-11-12T09:05:05.388Z,21.10
2022-11-12T09:10:09.098Z,21.20
2022-11-12T09:20:36.707Z,21.20
2022-11-12T09:25:40.191Z,21.30
2022-11-12T09:30:46.784Z,21.20
2022-11-12T09:35:50.359Z,21.20
2022-11-12T09:41:11.533Z,21.20
2022-11-12T09:46:28.008Z,21.10
2022-11-12T09:51:35.106Z,21.10
2022-11-12T09:56:38.214Z,21.20
2022-11-12T10:01:51.131Z,21.20
2022-11-12T10:07:01.476Z,21.20
2022-11-12T10:12:40.329Z,21.30
2022-11-12T10:17:53.150Z,21.30
2022-11-12T10:23:13.969Z,21.30
2022-11-12T10:28:31.840Z,21.20
2022-11-12T10:33:38.644Z,21.20
2022-11-12T10:38:44.788Z,21.20
2022-11-12T10:43:55.918Z,21.10
2022-11-12T10:49:03.593Z,21.10
2022-11-12T10:54:22.918Z,21.10
2022-11-12T10:59:26.514Z,21.20
2022-11-12T11:04:33.622Z,21.20
2022-11-12T11:09:36.647Z,21.30
2022-11-12T11:14:40.621Z,21.30
2022-11-12T11:19:45.085Z,21.20
2022-11-12T11:24:59.503Z,21.20
2022-11-12T11:30:11.310Z,21.20
2022-11-12T11:35:25.819Z,21.10
2022-11-12T11:40:32.662Z,21.10
2022-11-12T11:45:54.298Z,21.10
2022-11-12T11:51:04.032Z,21.20
2022-11-12T11:56:14.070Z,21.20
2022-11-12T12:01:26.702Z,21.30
2022-11-12T12:06:33.138Z,21.20
2022-11-12T12:11:43.997Z,21.30
2022-11-12T12:17:03.982Z,21.20
2022-11-12T12:22:15.466Z,21.20
2022-11-12T12:27:22.697Z,21.20
2022-11-12T12:32:30.561Z,21.10
2022-11-12T12:37:40.396Z,21.10
2022-11-12T12:42:48.983Z,21.20
2022-11-12T12:47:53.191Z,21.20
2022-11-12T12:53:17.042Z,21.30
2022-11-12T12:58:27.247Z,21.20
2022-11-12T13:03:53.860Z,21.20
2022-11-12T13:09:02.888Z,21.20
2022-11-12T13:14:39.491Z,21.20
2022-11-12T13:19:47.006Z,21.10
2022-11-12T13:25:06.074Z,21.10
2022-11-12T13:30:09.881Z,21.10
2022-11-12T13:35:31.083Z,21.10
2022-11-12T13:40:41.170Z,21.10
2022-11-12T13:45:49.013Z,21.10
2022-11-12T13:50:56.030Z,21.10
2022-11-12T13:56:00.618Z,21.10
2022-11-12T14:01:05.214Z,21.10
2022-11-12T14:06:16.963Z,21.10
2022-11-12T14:11:49.901Z,21.00
2022-11-12T14:17:21.964Z,21.00
2022-11-12T14:22:25.820Z,21.10
2022-11-12T14:27:37.558Z,21.10
2022-11-12T14:32:41.863Z,21.20
2022-11-12T14:37:52.130Z,21.20
2022-11-12T14:42:56.957Z,21.20
2022-11-12T14:47:59.937Z,21.20
2022-11-12T14:53:07.130Z,21.20
2022-11-12T14:58:16.749Z,21.10
2022-11-12T15:03:22.698Z,21.10
2022-11-12T15:08:34.040Z,21.10
2022-11-12T15:13:42.275Z,21.00
2022-11-12T15:18:45.530Z,21.00
2022-11-12T15:23:49.823Z,21.10
2022-11-12T15:29:01.619Z,21.20
2022-11-12T15:34:30.543Z,21.20
2022-11-12T15:39:40.955Z,21.30
2022-11-12T15:44:46.869Z,21.40
2022-11-12T15:49:51.319Z,21.40
2022-11-12T15:54:54.636Z,21.50
2022-11-12T16:00:07.606Z,21.70
2022-11-12T16:05:14.498Z,21.80
2022-11-12T16:10:19.719Z,21.90
2022-11-12T16:15:25.538Z,22.00
2022-11-12T16:20:31.158Z,22.30
2022-11-12T16:25:36.716Z,22.70
2022-11-12T16:30:41.340Z,23.00
2022-11-12T16:35:44.449Z,23.20
2022-11-12T16:40:47.502Z,23.40
2022-11-12T16:45:51.856Z,23.60
2022-11-12T16:50:54.813Z,23.80
2022-11-12T16:55:58.263Z,24.00
2022-11-12T17:01:02.750Z,24.00
2022-11-12T17:06:06.485Z,24.00
2022-11-12T17:11:10.126Z,24.00
2022-11-12T17:16:14.733Z,24.00
2022-11-12T17:21:19.370Z,24.20
2022-11-12T17:26:22.992Z,24.30
2022-11-12T17:31:27.378Z,24.50
2022-11-12T17:36:30.441Z,24.60
2022-11-12T17:41:33.519Z,24.70
2022-11-12T17:46:37.864Z,24.70
2022-11-12T17:51:41.431Z,24.70
2022-11-12T17:56:44.499Z,24.70
2022-11-12T18:01:48.860Z,24.90
2022-11-12T18:06:51.906Z,25.00
2022-11-12T18:11:56.607Z,25.20
2022-11-12T18:17:01.567Z,25.30
2022-11-12T18:22:04.580Z,25.40
2022-11-12T18:27:07.543Z,25.50
2022-11-12T18:32:11.890Z,25.50
2022-11-12T18:37:15.264Z,25.60
2022-11-12T18:42:18.234Z,25.60
2022-11-12T18:47:22.655Z,25.60
2022-11-12T18:52:25.681Z,25.60
2022-11-12T18:57:28.670Z,25.60
2022-11-12T19:02:33.003Z,25.70
2022-11-12T19:07:35.997Z,25.70
2022-11-12T19:12:39.016Z,25.60
2022-11-12T19:17:43.386Z,25.50
2022-11-12T19:22:46.378Z,25.40
2022-11-12T19:27:49.999Z,25.40
2022-11-12T19:32:54.301Z,25.40
2022-11-12T19:37:57.291Z,25.30
2022-11-12T19:43:00.271Z,25.20
2022-11-12T19:48:05.354Z,25.20
2022-11-12T19:53:08.346Z,25.20
2022-11-12T19:58:11.425Z,25.10
2022-11-12T20:03:15.836Z,25.10
2022-11-12T20:08:18.840Z,25.10
2022-11-12T20:13:21.902Z,25.10
2022-11-12T20:18:26.977Z,25.00
2022-11-12T20:23:30.842Z,24.90
2022-11-12T20:28:34.549Z,24.90
2022-11-12T20:33:42.274Z,24.80
2022-11-12T20:38:47.456Z,24.80
2022-11-12T20:43:53.839Z,24.80
2022-11-12T20:48:58.253Z,24.70
2022-11-12T20:54:01.231Z,24.70
2022-11-12T20:59:04.220Z,24.60
2022-11-12T21:04:08.562Z,24.60
2022-11-12T21:09:11.716Z,24.60
2022-11-12T21:14:15.246Z,24.50
2022-11-12T21:19:19.626Z,24.50
2022-11-12T21:24:22.622Z,24.40
2022-11-12T21:29:25.606Z,24.40
2022-11-12T21:34:30.058Z,24.40
2022-11-12T21:39:33.046Z,24.40
2022-11-12T21:44:36.048Z,24.40
2022-11-12T21:49:40.439Z,24.30
2022-11-12T21:54:43.401Z,24.30
2022-11-12T21:59:46.415Z,24.20
2022-11-12T22:04:50.746Z,24.20
2022-11-12T22:09:56.756Z,24.20
2022-11-12T22:15:00.125Z,24.10
2022-11-12T22:20:05.074Z,24.00
2022-11-12T22:25:08.596Z,24.00
2022-11-12T22:30:12.628Z,23.90
2022-11-12T22:35:17.062Z,23.90
2022-11-12T22:40:20.030Z,23.80
2022-11-12T22:45:23.059Z,23.70
2022-11-12T22:50:27.438Z,23.70
2022-11-12T22:55:30.429Z,23.80
2022-11-12T23:00:33.716Z,23.80
2022-11-12T23:05:38.074Z,23.80
2022-11-12T23:10:45.588Z,23.90
2022-11-12T23:15:49.216Z,23.90
2022-11-12T23:20:53.546Z,23.90
2022-11-12T23:26:01.982Z,23.90
2022-11-12T23:31:06.010Z,23.80
2022-11-12T23:36:12.153Z,23.80
2022-11-12T23:41:17.433Z,23.70
2022-11-12T23:46:20.409Z,23.60
2022-11-12T23:51:24.865Z,23.60
2022-11-12T23:56:27.827Z,23.60
